Time;durP1;ratioP1;P1;durP2;ratioP2;P2;SDS_P1;SDS_P2;PMS_P1;PMS_P2;Temp;Humidity;BMP_temperature;BMP_pressure;BME280_temperature;BME280_humidity;BME280_pressure;Samples;Min_cycle;Max_cycle;Signal;HPM_P1;HPM_P2
2021/12/18 00:01:08;;;;;;;4.70;2.03;;;19.80;68.30;;;;;;10624291;27;20123;-67
2021/12/18 00:06:14;;;;;;;5.32;2.30;;;19.70;68.20;;;;;;10624985;27;20039;-67
2021/12/18 00:11:19;;;;;;;3.67;1.95;;;19.70;68.20;;;;;;10624054;27;20043;-66
2021/12/18 00:16:24;;;;;;;6.03;2.63;;;19.60;68.20;;;;;;10623805;27;20047;-67
2021/12/18 00:21:30;;;;;;;5.00;2.28;;;19.60;68.20;;;;;;10623914;28;20096;-67
2021/12/18 00:26:40;;;;;;;10.73;3.50;;;19.60;68.50;;;;;;10624184;28;20047;-67
2021/12/18 00:31:51;;;;;;;8.48;2.83;;;19.60;68.40;;;;;;10605986;28;20112;-66
2021/12/18 00:36:58;;;;;;;5.45;3.15;;;19.60;68.40;;;;;;10586908;28;20039;-67
2021/12/18 00:42:24;;;;;;;10.90;3.53;;;19.60;68.50;;;;;;10607305;28;20449;-68
2021/12/18 00:47:31;;;;;;;9.98;3.60;;;19.50;68.40;;;;;;10581413;28;20089;-68
2021/12/18 00:52:39;;;;;;;6.78;2.90;;;19.50;68.30;;;;;;10605944;28;20035;-67
2021/12/18 00:57:45;;;;;;;7.47;3.30;;;19.50;68.40;;;;;;10623019;28;20088;-67
2021/12/18 01:02:57;;;;;;;8.30;3.58;;;19.50;68.40;;;;;;10600376;28;20459;-67
2021/12/18 01:08:02;;;;;;;8.50;3.55;;;19.50;68.40;;;;;;10580493;28;20141;-67
2021/12/18 01:13:11;;;;;;;6.50;3.05;;;19.40;68.40;;;;;;10587410;28;20052;-67
2021/12/18 01:23:39;;;;;;;8.10;3.38;;;19.40;68.50;;;;;;10589667;28;19926;-67
2021/12/18 01:28:47;;;;;;;6.38;3.00;;;19.40;68.50;;;;;;10612905;27;20047;-67
2021/12/18 01:33:54;;;;;;;8.30;3.40;;;19.30;68.50;;;;;;10630673;27;20381;-66
2021/12/18 01:39:03;;;;;;;8.57;3.42;;;19.30;68.60;;;;;;10612715;27;20108;-66
2021/12/18 01:54:57;;;;;;;7.88;3.22;;;19.20;68.70;;;;;;10629699;27;20039;-67
2021/12/18 02:00:23;;;;;;;8.40;3.40;;;19.20;68.70;;;;;;10611976;27;20104;-67
2021/12/18 02:05:29;;;;;;;6.57;3.22;;;19.20;68.70;;;;;;10629462;27;20079;-67
2021/12/18 02:10:45;;;;;;;7.55;3.50;;;19.20;68.80;;;;;;10629481;27;20103;-68
2021/12/18 02:21:18;;;;;;;7.82;3.13;;;19.10;69.10;;;;;;10609753;27;20047;-68
2021/12/18 02:26:23;;;;;;;9.48;3.30;;;19.10;68.90;;;;;;10628508;27;20536;-67
2021/12/18 02:31:34;;;;;;;13.45;3.28;;;19.10;68.90;;;;;;10628260;27;20043;-68
2021/12/18 02:36:46;;;;;;;9.63;3.35;;;19.10;68.80;;;;;;10628860;27;20094;-68
2021/12/18 02:47:15;;;;;;;7.25;2.80;;;19.10;68.80;;;;;;10609350;27;20116;-68
2021/12/18 02:52:26;;;;;;;7.15;2.75;;;19.00;68.80;;;;;;10627370;27;20035;-68
2021/12/18 02:57:32;;;;;;;5.53;2.88;;;19.00;68.80;;;;;;10627204;27;20051;-68
2021/12/18 03:02:42;;;;;;;7.18;2.58;;;19.00;68.80;;;;;;10625898;27;20047;-67
2021/12/18 03:07:52;;;;;;;12.20;3.58;;;19.00;69.10;;;;;;10607659;27;20064;-67
2021/12/18 03:24:21;;;;;;;6.18;3.10;;;18.90;69.30;;;;;;10623047;27;20035;-67
2021/12/18 03:29:27;;;;;;;6.45;3.13;;;18.90;69.40;;;;;;10624524;27;20027;-68
2021/12/18 03:34:32;;;;;;;10.02;3.00;;;18.90;69.40;;;;;;10590165;27;20148;-68
2021/12/18 03:39:38;;;;;;;7.90;2.47;;;18.90;69.60;;;;;;10625496;27;20043;-67
2021/12/18 03:44:43;;;;;;;6.18;2.80;;;18.90;69.70;;;;;;10607612;27;20113;-69
2021/12/18 03:49:48;;;;;;;9.02;2.92;;;18.80;69.70;;;;;;10625153;27;20039;-66
2021/12/18 03:54:56;;;;;;;8.30;3.40;;;18.90;69.70;;;;;;10624343;27;20051;-67
2021/12/18 04:00:05;;;;;;;9.60;3.53;;;19.00;69.70;;;;;;10606787;27;20051;-66
2021/12/18 04:05:16;;;;;;;13.07;3.47;;;19.00;69.70;;;;;;10624325;27;20047;-68
2021/12/18 04:10:21;;;;;;;5.50;2.33;;;19.20;69.80;;;;;;10624538;27;20043;-67
2021/12/18 04:15:26;;;;;;;8.13;2.40;;;19.20;69.60;;;;;;10624434;27;20043;-67
2021/12/18 04:20:31;;;;;;;10.48;2.65;;;19.40;69.30;;;;;;10623785;28;20051;-66
2021/12/18 04:25:43;;;;;;;9.85;2.20;;;19.50;69.00;;;;;;10623531;28;20108;-66
2021/12/18 04:30:56;;;;;;;7.80;2.67;;;19.70;68.80;;;;;;10623631;28;20047;-67
2021/12/18 04:36:01;;;;;;;5.15;2.20;;;19.70;68.60;;;;;;10566599;28;20052;-66
2021/12/18 04:41:09;;;;;;;8.55;2.10;;;19.90;68.50;;;;;;10568473;28;20392;-66
2021/12/18 04:46:23;;;;;;;3.88;1.80;;;19.90;68.40;;;;;;10626527;27;20449;-67
2021/12/18 04:51:29;;;;;;;5.18;2.05;;;19.90;68.30;;;;;;10597281;27;20096;-66
2021/12/18 04:56:37;;;;;;;1999.90;999.90;;;20.00;68.30;;;;;;10631526;27;20051;-66
2021/12/18 05:01:45;;;;;;;6.65;2.30;;;20.10;68.20;;;;;;10613904;27;20063;-66
2021/12/18 05:06:53;;;;;;;5.20;1.50;;;20.20;68.20;;;;;;10597327;27;20072;-66
2021/12/18 05:12:04;;;;;;;4.15;1.35;;;20.20;68.10;;;;;;10631557;27;20479;-65
2021/12/18 05:17:12;;;;;;;4.55;1.73;;;20.20;68.00;;;;;;10624329;27;20055;-67
2021/12/18 05:22:18;;;;;;;12.05;2.10;;;20.30;68.00;;;;;;10612896;27;20116;-67
2021/12/18 05:27:32;;;;;;;4.00;1.50;;;20.30;67.90;;;;;;10630249;27;20051;-66
2021/12/18 05:32:46;;;;;;;6.05;1.52;;;20.40;67.80;;;;;;10602772;27;20052;-66
2021/12/18 05:38:04;;;;;;;7.70;1.90;;;20.40;67.70;;;;;;10587931;28;20036;-67
2021/12/18 05:43:09;;;;;;;7.40;1.75;;;20.40;67.80;;;;;;10587182;28;20048;-67
2021/12/18 05:48:14;;;;;;;4.82;1.40;;;20.40;67.80;;;;;;10613993;27;20039;-68
2021/12/18 05:53:19;;;;;;;3.00;1.25;;;20.40;67.70;;;;;;10627786;27;20043;-67
2021/12/18 05:58:27;;;;;;;6.00;1.70;;;20.30;67.60;;;;;;10627234;27;20403;-66
2021/12/18 06:03:34;;;;;;;9.02;4.15;;;20.30;67.50;;;;;;10628824;27;20116;-65
2021/12/18 06:08:42;;;;;;;13.00;2.25;;;20.30;67.50;;;;;;10627700;27;20053;-68
2021/12/18 06:13:52;;;;;;;11.18;2.35;;;20.30;68.20;;;;;;10627908;27;20043;-67
2021/12/18 06:18:58;;;;;;;9.70;1.77;;;20.20;67.80;;;;;;10628724;27;20050;-66
2021/12/18 06:24:04;;;;;;;8.10;1.60;;;20.20;67.90;;;;;;10628709;27;20100;-64
2021/12/18 06:29:09;;;;;;;17.50;1.98;;;20.20;68.20;;;;;;10625587;27;20039;-65
2021/12/18 06:34:15;;;;;;;301.05;44.03;;;20.20;68.50;;;;;;10629126;27;20116;-66
2021/12/18 06:39:24;;;;;;;223.88;33.35;;;20.10;68.90;;;;;;10624677;27;20059;-66
2021/12/18 06:44:30;;;;;;;161.52;23.75;;;20.10;68.80;;;;;;10606216;27;20404;-66
2021/12/18 06:49:41;;;;;;;112.63;16.38;;;20.10;68.70;;;;;;10607053;27;20043;-65
2021/12/18 06:54:46;;;;;;;80.00;13.75;;;20.00;68.60;;;;;;10608158;27;20051;-66
2021/12/18 06:59:57;;;;;;;68.13;11.27;;;19.90;68.40;;;;;;10627029;27;20088;-66
2021/12/18 07:05:06;;;;;;;55.10;8.52;;;19.90;68.20;;;;;;10626920;27;20046;-66
2021/12/18 07:10:14;;;;;;;49.72;8.65;;;19.90;68.10;;;;;;10626733;27;20483;-66
2021/12/18 07:15:19;;;;;;;45.92;6.97;;;19.80;68.00;;;;;;10625922;27;20104;-66
2021/12/18 07:20:27;;;;;;;31.45;6.28;;;19.80;67.90;;;;;;10610174;27;20042;-66
2021/12/18 07:25:33;;;;;;;35.00;6.45;;;19.80;67.80;;;;;;10608090;27;20580;-66
2021/12/18 07:30:40;;;;;;;32.10;5.78;;;19.70;67.60;;;;;;10625387;27;20043;-66
2021/12/18 07:35:49;;;;;;;23.55;5.25;;;19.70;67.60;;;;;;10624828;27;20051;-66
2021/12/18 07:41:01;;;;;;;25.77;4.35;;;19.70;67.60;;;;;;10590164;27;20054;-66
2021/12/18 07:46:09;;;;;;;16.95;3.78;;;19.60;67.50;;;;;;10608055;27;20039;-66
2021/12/18 07:51:14;;;;;;;20.55;4.40;;;19.60;68.10;;;;;;10625098;27;20053;-66
2021/12/18 07:56:19;;;;;;;13.25;3.20;;;19.60;67.40;;;;;;10624502;27;20389;-66
2021/12/18 08:01:24;;;;;;;10.10;2.88;;;19.50;67.20;;;;;;10624107;27;20054;-66
2021/12/18 08:06:29;;;;;;;9.15;3.13;;;19.50;67.10;;;;;;10606100;27;20408;-66
2021/12/18 08:11:42;;;;;;;10.88;2.72;;;19.50;67.70;;;;;;10623879;27;20047;-66
2021/12/18 08:16:50;;;;;;;13.32;3.33;;;19.50;67.00;;;;;;10606399;27;20043;-66
2021/12/18 08:21:58;;;;;;;6.95;2.97;;;19.50;66.90;;;;;;10623103;27;20442;-65
2021/12/18 08:27:03;;;;;;;8.40;3.28;;;19.50;66.90;;;;;;10623718;28;20127;-66
2021/12/18 08:32:11;;;;;;;6.22;2.55;;;19.40;66.70;;;;;;10623335;28;20043;-66
2021/12/18 08:37:16;;;;;;;;;;;19.40;67.30;;;;;;10623982;28;20093;-66
2021/12/18 08:42:21;;;;;;;9.80;3.08;;;19.30;66.60;;;;;;10623349;28;19972;-66
2021/12/18 08:47:29;;;;;;;6.43;2.67;;;19.40;66.50;;;;;;10606597;28;20084;-66
2021/12/18 08:52:37;;;;;;;9.68;2.85;;;19.30;66.40;;;;;;10606381;28;20039;-66
2021/12/18 08:57:46;;;;;;;6.20;2.35;;;19.30;66.30;;;;;;10606583;28;20065;-66
2021/12/18 09:02:54;;;;;;;6.05;2.13;;;19.30;66.30;;;;;;10623332;28;20051;-66
2021/12/18 09:07:59;;;;;;;9.80;3.25;;;19.20;66.20;;;;;;10588887;28;20051;-66
2021/12/18 09:13:08;;;;;;;6.20;2.45;;;19.20;66.80;;;;;;10623350;28;20039;-66
2021/12/18 09:18:13;;;;;;;7.20;2.50;;;19.20;66.20;;;;;;10622755;28;20051;-66
2021/12/18 09:23:22;;;;;;;5.55;2.22;;;19.10;66.10;;;;;;10623094;28;20041;-66
2021/12/18 09:28:30;;;;;;;6.72;2.00;;;19.10;66.10;;;;;;10623116;28;20092;-66
2021/12/18 09:33:35;;;;;;;7.93;2.25;;;19.10;66.10;;;;;;10625535;27;20051;-67
2021/12/18 09:38:43;;;;;;;5.97;2.33;;;19.10;66.10;;;;;;10612601;27;20445;-66
2021/12/18 09:43:48;;;;;;;5.80;2.25;;;19.10;66.10;;;;;;10629718;27;20100;-66
2021/12/18 09:48:54;;;;;;;3.85;2.17;;;19.00;66.10;;;;;;10631141;27;20062;-66
2021/12/18 09:54:01;;;;;;;5.28;2.40;;;19.00;66.10;;;;;;10630753;27;20190;-66
2021/12/18 09:59:10;;;;;;;4.40;2.22;;;19.00;66.10;;;;;;10611350;27;20415;-66
2021/12/18 10:04:33;;;;;;;6.53;2.30;;;19.00;66.10;;;;;;10628654;27;20051;-66
2021/12/18 10:09:41;;;;;;;5.18;2.28;;;19.00;66.10;;;;;;10629878;27;20092;-66
2021/12/18 10:15:13;;;;;;;3.83;2.53;;;18.90;66.00;;;;;;10611535;27;20039;-66
2021/12/18 10:20:23;;;;;;;7.10;2.90;;;18.90;66.10;;;;;;10628843;27;20043;-66
2021/12/18 10:25:38;;;;;;;5.25;2.55;;;18.90;66.00;;;;;;10628183;27;20047;-66
2021/12/18 10:30:55;;;;;;;5.15;2.92;;;18.90;66.10;;;;;;10628673;27;20043;-66
2021/12/18 10:36:01;;;;;;;6.70;3.60;;;18.90;66.00;;;;;;10610852;27;20035;-66
2021/12/18 10:41:31;;;;;;;5.57;4.28;;;18.80;66.00;;;;;;10627450;27;20499;-66
2021/12/18 10:46:39;;;;;;;6.22;4.43;;;18.80;66.00;;;;;;10626686;27;20051;-66
2021/12/18 10:51:45;;;;;;;6.90;4.72;;;18.80;66.00;;;;;;10609320;27;20043;-66
2021/12/18 10:56:57;;;;;;;8.70;4.60;;;18.80;66.10;;;;;;10626838;27;20047;-66
2021/12/18 11:02:05;;;;;;;7.82;4.80;;;18.80;66.10;;;;;;10626543;27;20123;-66
2021/12/18 11:07:25;;;;;;;8.93;4.57;;;18.70;66.00;;;;;;10626299;27;20103;-66
2021/12/18 11:18:02;;;;;;;6.68;4.28;;;18.70;66.00;;;;;;10625958;27;20092;-66
2021/12/18 11:23:07;;;;;;;6.65;3.97;;;18.70;66.10;;;;;;10627040;27;20111;-66
2021/12/18 11:28:14;;;;;;;6.85;4.30;;;18.70;66.10;;;;;;10626041;27;20100;-66
2021/12/18 11:33:20;;;;;;;7.65;4.18;;;18.70;66.10;;;;;;10625058;27;20536;-66
2021/12/18 11:38:25;;;;;;;6.35;4.18;;;18.60;66.10;;;;;;10606160;27;20043;-66
2021/12/18 11:43:40;;;;;;;7.07;3.88;;;18.60;66.10;;;;;;10624787;27;20092;-66
2021/12/18 11:48:56;;;;;;;5.60;3.50;;;18.60;66.10;;;;;;10624790;27;20047;-66
2021/12/18 11:54:03;;;;;;;7.60;3.20;;;18.60;66.10;;;;;;10625004;27;20084;-66
2021/12/18 11:59:08;;;;;;;5.28;3.90;;;18.60;66.10;;;;;;10623854;27;20084;-66
2021/12/18 12:04:18;;;;;;;5.60;3.58;;;18.50;66.00;;;;;;10606243;27;20055;-66
2021/12/18 12:09:39;;;;;;;5.57;3.63;;;18.50;66.10;;;;;;10623899;27;20095;-66
2021/12/18 12:14:46;;;;;;;6.80;3.55;;;18.50;66.10;;;;;;10624085;27;20057;-66
2021/12/18 12:20:00;;;;;;;5.73;3.43;;;18.50;66.00;;;;;;10624601;27;20552;-67
2021/12/18 12:25:08;;;;;;;6.40;3.47;;;18.50;66.10;;;;;;10624565;28;20483;-66
2021/12/18 12:30:42;;;;;;;4.97;3.55;;;18.50;66.10;;;;;;10623662;28;20065;-66
2021/12/18 12:35:55;;;;;;;5.78;3.65;;;18.40;66.00;;;;;;10623523;28;20047;-66
2021/12/18 12:41:34;;;;;;;6.55;3.47;;;18.40;66.00;;;;;;10624139;28;20087;-66
2021/12/18 12:46:40;;;;;;;4.80;3.38;;;18.40;66.00;;;;;;10587425;28;20431;-67
2021/12/18 12:52:09;;;;;;;6.13;4.18;;;18.40;66.10;;;;;;10623264;28;20047;-66
2021/12/18 12:57:24;;;;;;;5.93;3.60;;;18.40;66.10;;;;;;10624038;28;20073;-66
2021/12/18 13:02:34;;;;;;;6.13;3.90;;;18.40;66.10;;;;;;10624097;28;20119;-66
2021/12/18 13:07:45;;;;;;;6.20;3.63;;;18.30;66.00;;;;;;10626800;27;20051;-66
2021/12/18 13:13:12;;;;;;;5.78;3.53;;;18.30;66.00;;;;;;10631034;27;20047;-66
2021/12/18 13:18:40;;;;;;;4.38;3.15;;;18.30;66.00;;;;;;10612529;27;20092;-66
2021/12/18 13:23:49;;;;;;;5.03;3.53;;;18.30;66.00;;;;;;10613671;27;20043;-66
2021/12/18 13:28:59;;;;;;;3.83;3.05;;;18.30;66.00;;;;;;10612565;27;20051;-67
2021/12/18 13:34:10;;;;;;;6.00;3.40;;;18.30;66.00;;;;;;10630619;27;20035;-67
2021/12/18 13:39:37;;;;;;;6.20;3.70;;;18.30;66.00;;;;;;10629796;27;20072;-67
2021/12/18 13:44:51;;;;;;;8.32;4.13;;;18.30;66.00;;;;;;10618280;27;20055;-67
2021/12/18 13:50:20;;;;;;;6.47;4.38;;;18.20;66.00;;;;;;10630035;27;20061;-67
2021/12/18 13:55:32;;;;;;;6.10;3.97;;;18.20;66.00;;;;;;10629001;27;20051;-67
2021/12/18 14:00:47;;;;;;;9.15;4.88;;;18.20;65.80;;;;;;10629636;27;20051;-67
2021/12/18 14:05:54;;;;;;;7.20;4.40;;;18.20;65.80;;;;;;10611624;27;20046;-67
2021/12/18 14:11:09;;;;;;;9.23;4.25;;;18.20;65.80;;;;;;10628479;27;20039;-66
2021/12/18 14:16:19;;;;;;;6.35;4.00;;;18.30;65.70;;;;;;10629171;27;20035;-67
2021/12/18 14:21:39;;;;;;;5.72;3.95;;;18.50;65.60;;;;;;10628061;27;20092;-67
2021/12/18 14:27:09;;;;;;;7.55;4.05;;;18.60;65.50;;;;;;10628711;27;20043;-66
2021/12/18 14:32:17;;;;;;;5.47;3.78;;;18.70;65.30;;;;;;10610408;27;20043;-67
2021/12/18 14:37:25;;;;;;;6.15;3.55;;;18.80;65.30;;;;;;10628947;27;20108;-67
2021/12/18 14:42:36;;;;;;;6.93;3.60;;;18.90;65.20;;;;;;10628127;27;20043;-67
2021/12/18 14:47:51;;;;;;;4.50;3.15;;;18.90;65.00;;;;;;10592992;27;20080;-67
2021/12/18 14:53:05;;;;;;;5.15;3.17;;;19.10;65.00;;;;;;10626783;27;20051;-67
2021/12/18 14:58:37;;;;;;;4.70;3.22;;;19.10;64.90;;;;;;10626744;27;20476;-66
2021/12/18 15:03:51;;;;;;;5.32;2.90;;;19.20;64.80;;;;;;10609788;27;20043;-67
2021/12/18 15:09:06;;;;;;;6.47;3.03;;;19.30;64.80;;;;;;10627848;27;20124;-67
2021/12/18 15:14:18;;;;;;;4.95;3.25;;;19.30;64.90;;;;;;10626653;27;20035;-67
2021/12/18 15:19:28;;;;;;;4.75;3.03;;;19.40;64.80;;;;;;10625988;27;20100;-67
2021/12/18 15:24:33;;;;;;;3.70;2.75;;;19.40;64.70;;;;;;10625777;27;20095;-66
2021/12/18 15:29:41;;;;;;;5.50;3.10;;;19.50;64.70;;;;;;10625346;27;20043;-67
2021/12/18 15:34:49;;;;;;;4.35;2.83;;;19.60;64.60;;;;;;10625377;27;20493;-66
2021/12/18 15:39:57;;;;;;;3.67;2.70;;;19.60;64.60;;;;;;10626268;27;20039;-67
2021/12/18 15:45:08;;;;;;;4.53;3.07;;;19.60;64.60;;;;;;10591404;27;20047;-66
2021/12/18 15:50:13;;;;;;;3.80;2.45;;;19.70;64.50;;;;;;10624276;27;20281;-67
2021/12/18 15:55:22;;;;;;;;;;;19.70;64.40;;;;;;10608116;27;20035;-67
2021/12/18 16:00:29;;;;;;;3.50;2.17;;;19.80;64.40;;;;;;10624234;27;19972;-66
2021/12/18 16:05:39;;;;;;;3.90;2.67;;;19.80;64.40;;;;;;10624904;27;20388;-66
2021/12/18 16:10:46;;;;;;;3.85;2.45;;;19.90;64.40;;;;;;10624186;27;20051;-67
2021/12/18 16:15:51;;;;;;;4.28;2.42;;;19.90;64.30;;;;;;10623970;27;20115;-67
2021/12/18 16:21:03;;;;;;;3.72;2.42;;;19.90;64.20;;;;;;10605963;28;20503;-66
2021/12/18 16:26:11;;;;;;;2.92;2.25;;;20.00;64.30;;;;;;10624384;28;20044;-67
2021/12/18 16:31:19;;;;;;;3.13;2.40;;;19.90;64.10;;;;;;10624167;28;20069;-67
2021/12/18 16:36:24;;;;;;;2.72;2.30;;;19.90;64.20;;;;;;10605329;28;20141;-67
2021/12/18 16:41:29;;;;;;;4.25;2.25;;;19.90;64.20;;;;;;10625449;27;20051;-67
2021/12/18 16:46:34;;;;;;;3.25;2.30;;;19.90;64.20;;;;;;10632575;27;20039;-67
2021/12/18 16:51:40;;;;;;;2.72;2.13;;;19.90;64.10;;;;;;10631903;27;20047;-67
2021/12/18 16:56:45;;;;;;;3.35;2.30;;;19.90;64.20;;;;;;10631870;27;20416;-67
2021/12/18 17:01:50;;;;;;;4.20;3.00;;;19.80;64.20;;;;;;10631216;27;20047;-67
2021/12/18 17:06:55;;;;;;;4.57;3.10;;;19.80;64.20;;;;;;10631460;27;20491;-67
2021/12/18 17:12:03;;;;;;;6.88;3.88;;;19.80;64.10;;;;;;10631041;27;20047;-67
2021/12/18 17:17:08;;;;;;;6.53;3.90;;;19.80;64.20;;;;;;10630906;27;20047;-67
2021/12/18 17:22:13;;;;;;;6.22;3.50;;;19.70;64.10;;;;;;10613338;27;20043;-67
2021/12/18 17:27:18;;;;;;;6.03;3.92;;;19.70;64.10;;;;;;10630543;27;20092;-67
2021/12/18 17:32:26;;;;;;;7.65;3.95;;;19.70;64.30;;;;;;10631340;27;20395;-67
2021/12/18 17:37:32;;;;;;;9.80;5.10;;;19.60;64.20;;;;;;10630149;27;20050;-67
2021/12/18 17:42:37;;;;;;;12.05;5.40;;;19.60;64.20;;;;;;10630483;27;20459;-67
2021/12/18 17:47:43;;;;;;;11.65;5.60;;;19.60;64.20;;;;;;10629553;27;20107;-67
2021/12/18 17:52:48;;;;;;;13.52;6.65;;;19.50;64.20;;;;;;10628091;27;20088;-67
2021/12/18 17:57:54;;;;;;;15.38;7.20;;;19.50;64.30;;;;;;10629364;27;20043;-67
2021/12/18 18:03:00;;;;;;;15.82;6.90;;;19.60;64.30;;;;;;10631689;27;20043;-67
2021/12/18 18:08:07;;;;;;;13.40;6.35;;;19.60;64.20;;;;;;10628882;27;20536;-67
2021/12/18 18:13:21;;;;;;;13.40;6.75;;;19.70;64.10;;;;;;10628693;27;20495;-67
2021/12/18 18:18:52;;;;;;;12.60;6.60;;;19.70;64.00;;;;;;10624638;27;20047;-68
2021/12/18 19:18:53;;;;;;;17.40;6.43;;;20.10;64.50;;;;;;10583592;28;20047;-67
2021/12/18 19:24:52;;;;;;;12.95;6.10;;;20.10;64.60;;;;;;10527827;28;20512;-68
2021/12/18 19:30:12;;;;;;;10.63;5.40;;;20.10;64.60;;;;;;10599172;27;20091;-68
2021/12/18 19:35:25;;;;;;;12.35;5.85;;;20.00;64.80;;;;;;10601390;27;20441;-70
2021/12/18 19:40:34;;;;;;;92.10;31.88;;;20.00;64.90;;;;;;10618893;27;20046;-60
2021/12/18 19:45:40;;;;;;;97.75;32.03;;;19.30;58.80;;;;;;10621641;27;20072;-65
2021/12/18 19:50:48;;;;;;;;;;;18.80;62.50;;;;;;10624178;27;20035;-65
2021/12/18 19:55:53;;;;;;;41.85;15.70;;;19.10;64.10;;;;;;10590695;27;20387;-66
2021/12/18 20:00:58;;;;;;;28.58;10.88;;;19.20;63.30;;;;;;10623701;27;20380;-66
2021/12/18 20:06:04;;;;;;;20.25;7.43;;;19.30;63.50;;;;;;10623480;27;20047;-66
2021/12/18 20:11:09;;;;;;;14.57;5.13;;;19.40;63.70;;;;;;10623788;27;20812;-66
2021/12/18 20:16:14;;;;;;;9.88;4.05;;;19.40;63.90;;;;;;10620869;27;20055;-66
2021/12/18 20:21:19;;;;;;;8.50;3.50;;;19.40;64.00;;;;;;10623157;27;20060;-66
2021/12/18 20:26:27;;;;;;;6.22;3.70;;;19.40;64.20;;;;;;10599159;28;20055;-66
2021/12/18 20:31:35;;;;;;;6.57;3.15;;;19.40;64.40;;;;;;10621028;28;20084;-66
2021/12/18 20:36:42;;;;;;;5.88;2.13;;;19.30;64.50;;;;;;10581960;28;20051;-65
2021/12/18 20:41:51;;;;;;;3.00;1.42;;;19.30;64.80;;;;;;10581558;28;20043;-65
2021/12/18 20:46:57;;;;;;;1.92;1.42;;;19.30;64.90;;;;;;10563908;28;20039;-66
2021/12/18 20:52:03;;;;;;;3.10;1.80;;;19.30;65.20;;;;;;10547079;28;20065;-65
2021/12/18 20:57:09;;;;;;;3.55;1.77;;;19.30;65.20;;;;;;10581365;28;20047;-65
2021/12/18 21:02:14;;;;;;;6.43;2.10;;;19.30;65.30;;;;;;10581550;28;20100;-64
2021/12/18 21:07:20;;;;;;;7.15;2.50;;;19.30;65.40;;;;;;10580677;28;20450;-66
2021/12/18 21:12:25;;;;;;;20.92;2.30;;;19.30;65.60;;;;;;10580927;28;20043;-66
2021/12/18 21:17:50;;;;;;;5.78;2.40;;;19.20;65.70;;;;;;10580292;28;20408;-67
2021/12/18 21:22:56;;;;;;;5.55;2.58;;;19.20;65.80;;;;;;10579922;28;20052;-66
2021/12/18 21:28:01;;;;;;;4.70;2.33;;;19.20;65.90;;;;;;10583829;28;20044;-65
2021/12/18 21:33:12;;;;;;;4.38;2.38;;;19.20;66.00;;;;;;10587858;28;20093;-65
2021/12/18 21:38:17;;;;;;;4.75;2.03;;;19.20;66.00;;;;;;10588249;28;20085;-65
2021/12/18 21:43:22;;;;;;;6.05;2.50;;;19.10;66.10;;;;;;10587601;28;20056;-65
2021/12/18 21:48:33;;;;;;;5.63;2.00;;;19.10;66.10;;;;;;10570607;28;20039;-65
2021/12/18 21:53:38;;;;;;;3.70;2.30;;;19.10;66.40;;;;;;10602161;28;20062;-65
2021/12/18 21:58:47;;;;;;;7.03;2.38;;;19.10;66.50;;;;;;10586773;28;20118;-65
2021/12/18 22:04:01;;;;;;;5.57;2.42;;;19.10;66.70;;;;;;10587702;28;20055;-66
2021/12/18 22:09:07;;;;;;;3.65;2.20;;;19.10;66.90;;;;;;10587200;28;20047;-66
2021/12/18 22:14:18;;;;;;;3.83;2.40;;;19.00;67.10;;;;;;10586342;28;20101;-66
2021/12/18 22:19:24;;;;;;;6.75;1.92;;;19.00;67.20;;;;;;10586619;28;20036;-66
2021/12/18 22:24:35;;;;;;;6.20;2.13;;;19.00;67.30;;;;;;10585862;28;20557;-65
2021/12/18 22:29:47;;;;;;;6.22;2.20;;;19.00;67.40;;;;;;10585567;28;20052;-65
2021/12/18 22:34:52;;;;;;;5.63;2.17;;;19.00;67.70;;;;;;10585325;28;20047;-65
2021/12/18 22:39:57;;;;;;;6.22;2.20;;;19.00;67.70;;;;;;10584624;28;20055;-65
2021/12/18 22:45:06;;;;;;;5.68;2.08;;;19.00;67.90;;;;;;10585611;28;20096;-65
2021/12/18 22:50:16;;;;;;;10.63;2.30;;;18.90;68.00;;;;;;10585332;28;20081;-65
2021/12/18 22:55:21;;;;;;;6.18;2.35;;;19.00;68.10;;;;;;10584134;28;20044;-64
2021/12/18 23:00:40;;;;;;;5.47;2.47;;;18.90;68.20;;;;;;10585138;28;20036;-65
2021/12/18 23:05:49;;;;;;;5.75;3.47;;;18.90;68.30;;;;;;10584220;28;20047;-65
2021/12/18 23:10:56;;;;;;;8.10;3.17;;;18.90;68.40;;;;;;10584467;28;20085;-67
2021/12/18 23:16:23;;;;;;;9.88;3.35;;;18.90;68.50;;;;;;10583176;28;20305;-68
2021/12/18 23:21:28;;;;;;;20.17;3.33;;;18.90;68.60;;;;;;10566113;28;20043;-68
2021/12/18 23:26:34;;;;;;;10.50;3.38;;;18.90;68.70;;;;;;10565149;28;20500;-67
2021/12/18 23:31:40;;;;;;;4.35;2.60;;;18.90;68.80;;;;;;10567505;28;20040;-68
2021/12/18 23:36:48;;;;;;;6.68;3.00;;;18.80;68.90;;;;;;10584010;28;20073;-68
2021/12/18 23:42:15;;;;;;;9.65;3.45;;;18.80;69.00;;;;;;10565285;28;20052;-68
2021/12/18 23:47:20;;;;;;;6.93;3.53;;;18.80;69.10;;;;;;10583624;28;20479;-68
2021/12/18 23:52:25;;;;;;;5.60;3.03;;;18.80;69.30;;;;;;10581451;28;20047;-68
2021/12/18 23:57:30;;;;;;;8.43;2.75;;;18.80;69.60;;;;;;10582054;28;20491;-68
